Time;durP1;ratioP1;P1;durP2;ratioP2;P2;SDS_P1;SDS_P2;PMS_P1;PMS_P2;Temp;Humidity;BMP_temperature;BMP_pressure;BME280_temperature;BME280_humidity;BME280_pressure;Samples;Min_cycle;Max_cycle;Signal;HPM_P1;HPM_P2
2023/05/18 00:00:20;;;;;;;7.30;2.70;;;;;;;6.19;100.00;102720.00;7394083;19;20403;-36
2023/05/18 00:02:52;;;;;;;28.57;9.03;;;;;;;6.13;100.00;102724.56;7387552;19;20451;-37
2023/05/18 00:05:21;;;;;;;9.80;2.73;;;;;;;6.04;100.00;102705.03;7392096;19;20523;-36
2023/05/18 00:07:52;;;;;;;14.33;4.00;;;;;;;5.99;100.00;102721.59;7388361;19;20444;-36
2023/05/18 00:10:21;;;;;;;12.37;2.60;;;;;;;5.91;100.00;102735.38;7391044;19;20947;-35
2023/05/18 00:12:51;;;;;;;9.00;2.40;;;;;;;5.96;100.00;102729.03;7389046;19;20822;-37
2023/05/18 00:15:20;;;;;;;9.00;2.97;;;;;;;5.98;100.00;102734.28;7391105;19;20459;-36
2023/05/18 00:17:53;;;;;;;12.50;3.33;;;;;;;6.15;100.00;102775.22;7389520;19;20433;-36
2023/05/18 00:20:25;;;;;;;9.80;3.33;;;;;;;6.49;100.00;102792.78;7391385;19;20434;-36
2023/05/18 00:22:55;;;;;;;9.90;2.50;;;;;;;6.39;100.00;102744.91;7390142;19;20800;-36
2023/05/18 00:25:25;;;;;;;12.00;2.87;;;;;;;6.23;100.00;102722.09;7397993;19;20450;-36
2023/05/18 00:27:54;;;;;;;10.37;2.50;;;;;;;6.19;100.00;102717.44;7396491;19;20430;-37
2023/05/18 00:30:24;;;;;;;7.57;2.40;;;;;;;6.13;100.00;102704.97;7401290;19;20402;-36
2023/05/18 00:32:57;;;;;;;8.20;2.60;;;;;;;6.16;100.00;102706.91;7397545;19;20923;-36
2023/05/18 00:35:26;;;;;;;14.17;2.67;;;;;;;6.13;100.00;102704.06;7393608;19;20443;-36
2023/05/18 00:37:56;;;;;;;14.50;2.23;;;;;;;6.31;100.00;102721.09;7396191;19;20447;-36
2023/05/18 00:40:27;;;;;;;12.03;2.23;;;;;;;5.99;100.00;102685.72;7398226;19;20498;-36
2023/05/18 00:42:57;;;;;;;11.50;2.27;;;;;;;5.84;100.00;102692.91;7397307;19;20451;-36
2023/05/18 00:45:27;;;;;;;9.57;2.70;;;;;;;6.13;100.00;102732.25;7397168;19;20438;-35
2023/05/18 00:47:59;;;;;;;7.93;2.00;;;;;;;6.12;100.00;102712.50;7397442;19;20455;-37
2023/05/18 00:50:29;;;;;;;13.20;2.60;;;;;;;6.06;100.00;102697.50;7398256;19;20426;-38
2023/05/18 00:52:59;;;;;;;11.73;2.87;;;;;;;5.91;100.00;102714.88;7394195;19;20434;-37
2023/05/18 00:55:29;;;;;;;11.57;2.83;;;;;;;6.03;100.00;102744.25;7397596;19;20475;-37
2023/05/18 00:58:01;;;;;;;10.33;2.10;;;;;;;5.85;100.00;102734.81;7395646;19;20463;-37
2023/05/18 01:00:30;;;;;;;13.07;3.20;;;;;;;6.06;100.00;102739.38;7398361;19;20436;-37
2023/05/18 01:03:03;;;;;;;11.53;2.77;;;;;;;6.15;100.00;102707.69;7396560;19;20427;-37
2023/05/18 01:05:33;;;;;;;10.53;2.80;;;;;;;6.06;100.00;102675.31;7397162;19;20815;-37
2023/05/18 01:08:02;;;;;;;12.10;3.33;;;;;;;5.96;100.00;102654.72;7396243;19;20996;-37
2023/05/18 01:10:35;;;;;;;6.80;2.33;;;;;;;5.92;100.00;102683.38;7396822;19;20414;-43
2023/05/18 01:13:08;;;;;;;7.97;2.50;;;;;;;5.98;100.00;102691.63;7394822;19;20460;-38
2023/05/18 01:15:40;;;;;;;13.20;2.93;;;;;;;6.12;100.00;102676.63;7397643;19;20451;-36
2023/05/18 01:18:21;;;;;;;8.80;2.33;;;;;;;6.16;100.00;102663.34;7395024;19;20451;-36
2023/05/18 01:20:53;;;;;;;8.60;2.43;;;;;;;6.13;100.00;102678.44;7397319;19;20367;-36
2023/05/18 01:23:45;;;;;;;7.37;2.50;;;;;;;6.20;100.00;102670.53;7396163;19;20451;-37
2023/05/18 01:26:23;;;;;;;9.27;1.80;;;;;;;6.14;100.00;102652.03;7396023;19;20462;-37
2023/05/18 01:28:53;;;;;;;8.90;2.47;;;;;;;6.03;100.00;102644.28;7399035;19;20468;-37
2023/05/18 01:31:23;;;;;;;11.23;2.20;;;;;;;5.81;100.00;102654.22;7399242;19;20418;-37
2023/05/18 01:33:52;;;;;;;11.03;2.37;;;;;;;5.70;100.00;102665.13;7399945;19;20462;-37
2023/05/18 01:36:22;;;;;;;15.43;2.73;;;;;;;5.52;100.00;102678.03;7393893;19;20459;-36
2023/05/18 01:38:52;;;;;;;9.83;2.60;;;;;;;5.90;100.00;102742.16;7399159;19;20445;-37
2023/05/18 01:41:26;;;;;;;12.97;2.00;;;;;;;5.96;100.00;102759.78;7396444;19;20475;-38
2023/05/18 01:44:02;;;;;;;6.17;2.00;;;;;;;5.75;100.00;102744.19;7398923;19;21091;-38
2023/05/18 01:46:39;;;;;;;13.27;2.47;;;;;;;5.68;100.00;102752.97;7391080;19;20856;-36
2023/05/18 01:49:14;;;;;;;13.10;3.20;;;;;;;5.92;100.00;102771.41;7399167;19;20589;-37
2023/05/18 01:51:47;;;;;;;9.60;3.40;;;;;;;6.05;100.00;102773.47;7391089;19;20425;-36
2023/05/18 01:54:19;;;;;;;12.13;2.73;;;;;;;6.18;100.00;102772.94;7399878;19;20412;-36
2023/05/18 01:56:53;;;;;;;8.37;2.30;;;;;;;6.15;100.00;102759.81;7392743;19;20413;-37
2023/05/18 01:59:22;;;;;;;10.57;2.77;;;;;;;6.13;100.00;102739.94;7397870;19;20415;-36
2023/05/18 02:01:54;;;;;;;10.90;2.30;;;;;;;5.61;100.00;102717.31;7392302;19;20766;-37
2023/05/18 02:04:28;;;;;;;11.83;2.40;;;;;;;5.43;100.00;102729.28;7396278;19;20414;-37
2023/05/18 02:06:58;;;;;;;8.70;2.80;;;;;;;5.89;100.00;102781.34;7393459;19;20421;-37
2023/05/18 02:09:27;;;;;;;9.13;2.40;;;;;;;5.58;100.00;102747.75;7394958;19;20444;-36
2023/05/18 02:12:00;;;;;;;10.03;2.83;;;;;;;5.86;100.00;102769.91;7392544;19;20421;-36
2023/05/18 02:14:29;;;;;;;12.53;2.53;;;;;;;5.87;100.00;102767.50;7397694;19;20429;-36
2023/05/18 02:16:59;;;;;;;19.57;2.50;;;;;;;5.90;100.00;102778.03;7392005;19;20432;-38
2023/05/18 02:19:29;;;;;;;9.60;1.90;;;;;;;5.74;100.00;102765.44;7396558;19;20410;-35
2023/05/18 02:21:59;;;;;;;8.53;2.90;;;;;;;5.80;100.00;102776.28;7390842;19;20961;-36
2023/05/18 02:24:29;;;;;;;7.93;2.17;;;;;;;5.94;100.00;102763.84;7397426;19;20418;-37
2023/05/18 02:27:01;;;;;;;10.47;2.60;;;;;;;5.86;100.00;102754.53;7395518;19;20422;-36
2023/05/18 02:29:31;;;;;;;9.13;3.40;;;;;;;5.91;100.00;102753.31;7394966;19;20807;-37
2023/05/18 02:32:01;;;;;;;8.87;2.60;;;;;;;6.16;100.00;102750.50;7393237;19;20424;-37
2023/05/18 02:34:31;;;;;;;9.10;2.97;;;;;;;5.99;100.00;102707.91;7394165;19;20960;-36
2023/05/18 02:37:03;;;;;;;10.70;3.47;;;;;;;6.13;100.00;102729.69;7391729;19;20502;-36
2023/05/18 02:39:32;;;;;;;7.73;2.80;;;;;;;6.19;100.00;102725.13;7397954;19;20479;-37
2023/05/18 02:42:05;;;;;;;14.87;2.60;;;;;;;5.95;100.00;102704.16;7392388;19;20494;-37
2023/05/18 02:44:34;;;;;;;7.80;2.00;;;;;;;5.90;100.00;102697.72;7397238;19;20834;-37
2023/05/18 02:47:04;;;;;;;14.90;3.10;;;;;;;5.86;100.00;102705.88;7388266;19;20431;-36
2023/05/18 02:49:34;;;;;;;13.23;2.43;;;;;;;5.57;100.00;102693.81;7394038;19;20855;-37
2023/05/18 02:52:03;;;;;;;10.03;2.17;;;;;;;5.41;100.00;102692.38;7391811;19;20410;-38
2023/05/18 02:54:33;;;;;;;10.40;1.90;;;;;;;5.33;100.00;102690.78;7394642;19;20405;-38
2023/05/18 02:57:05;;;;;;;5.40;1.77;;;;;;;5.23;100.00;102692.47;7392055;19;20507;-36
2023/05/18 02:59:35;;;;;;;8.30;2.00;;;;;;;5.27;100.00;102678.28;7394391;19;20418;-37
2023/05/18 03:02:04;;;;;;;10.97;2.17;;;;;;;5.24;100.00;102686.56;7391664;19;20414;-37
2023/05/18 03:04:34;;;;;;;13.97;2.10;;;;;;;5.21;100.00;102701.66;7394546;19;20422;-38
2023/05/18 03:07:06;;;;;;;10.23;2.30;;;;;;;5.14;100.00;102706.94;7389909;19;20422;-38
2023/05/18 03:09:35;;;;;;;15.37;2.63;;;;;;;5.06;100.00;102682.28;7394046;19;20422;-36
2023/05/18 03:12:09;;;;;;;9.67;1.93;;;;;;;5.11;100.00;102656.38;7391037;19;20434;-37
2023/05/18 03:14:38;;;;;;;8.40;2.00;;;;;;;5.27;100.00;102653.59;7395993;19;20410;-36
2023/05/18 03:17:08;;;;;;;7.57;2.27;;;;;;;5.35;100.00;102630.38;7390719;19;20432;-37
2023/05/18 03:19:37;;;;;;;7.10;2.20;;;;;;;5.36;100.00;102647.53;7393394;19;20445;-36
2023/05/18 03:22:07;;;;;;;8.30;2.30;;;;;;;5.38;100.00;102612.72;7390461;19;20434;-35
2023/05/18 03:24:39;;;;;;;13.40;3.90;;;;;;;5.36;100.00;102611.69;7394546;19;20409;-37
2023/05/18 03:27:15;;;;;;;6.50;2.37;;;;;;;5.32;100.00;102599.38;7390771;19;20425;-37
2023/05/18 03:29:44;;;;;;;5.83;2.43;;;;;;;5.30;100.00;102623.91;7396339;19;20473;-37
2023/05/18 03:32:14;;;;;;;7.53;1.80;;;;;;;5.23;100.00;102633.59;7390928;19;20453;-38
2023/05/18 03:34:44;;;;;;;13.07;2.30;;;;;;;5.32;100.00;102640.34;7392470;19;20505;-37
2023/05/18 03:37:14;;;;;;;12.80;3.40;;;;;;;5.28;100.00;102628.88;7389321;19;20517;-38
2023/05/18 03:39:44;;;;;;;10.10;1.93;;;;;;;5.35;100.00;102566.38;7392774;19;20976;-38
2023/05/18 03:42:16;;;;;;;14.77;2.67;;;;;;;5.34;100.00;102574.81;7388625;19;20437;-39
2023/05/18 03:44:47;;;;;;;11.37;2.30;;;;;;;5.34;100.00;102580.81;7392322;19;20527;-37
2023/05/18 03:47:17;;;;;;;14.80;2.87;;;;;;;5.34;100.00;102618.34;7389664;19;20518;-37
2023/05/18 03:49:47;;;;;;;7.30;2.13;;;;;;;5.32;100.00;102630.09;7395726;19;20768;-37
2023/05/18 03:52:21;;;;;;;6.37;1.63;;;;;;;5.36;100.00;102611.69;7388483;19;20441;-37
2023/05/18 03:54:51;;;;;;;6.80;1.60;;;;;;;5.32;100.00;102617.31;7393688;19;20462;-37
2023/05/18 03:57:23;;;;;;;8.13;2.47;;;;;;;5.39;100.00;102638.47;7387797;19;20499;-38
2023/05/18 03:59:53;;;;;;;17.80;3.17;;;;;;;5.40;100.00;102634.28;7394023;19;20833;-37
2023/05/18 04:02:23;;;;;;;8.23;2.50;;;;;;;5.41;100.00;102628.38;7387686;19;20447;-37
2023/05/18 04:04:52;;;;;;;7.23;2.30;;;;;;;5.43;100.00;102608.94;7392861;19;20984;-37
2023/05/18 04:07:23;;;;;;;10.63;2.17;;;;;;;5.42;100.00;102603.69;7383297;19;21039;-37
2023/05/18 04:09:53;;;;;;;7.10;2.10;;;;;;;5.49;100.00;102589.03;7394803;19;20423;-37
2023/05/18 04:12:25;;;;;;;13.63;2.20;;;;;;;5.53;100.00;102555.25;7387461;19;20462;-37
2023/05/18 04:14:55;;;;;;;5.83;1.80;;;;;;;5.47;100.00;102549.59;7392637;19;20445;-37
2023/05/18 04:17:24;;;;;;;9.23;2.30;;;;;;;5.54;100.00;102557.06;7389312;19;20976;-38
2023/05/18 04:19:54;;;;;;;8.50;2.13;;;;;;;5.57;100.00;102535.03;7392418;19;20411;-37
2023/05/18 04:22:24;;;;;;;9.97;2.33;;;;;;;5.53;100.00;102560.38;7385679;19;21013;-36
2023/05/18 04:24:56;;;;;;;10.03;2.90;;;;;;;5.57;100.00;102524.78;7392586;19;20430;-37
2023/05/18 04:27:28;;;;;;;11.33;2.67;;;;;;;5.59;100.00;102503.69;7387548;19;20426;-37
2023/05/18 04:29:58;;;;;;;6.07;2.20;;;;;;;5.66;100.00;102511.16;7394665;19;20440;-37
2023/05/18 04:32:29;;;;;;;9.70;2.40;;;;;;;5.76;100.00;102471.03;7387502;19;20465;-37
2023/05/18 04:35:00;;;;;;;14.10;2.70;;;;;;;5.84;100.00;102476.84;7393343;19;20458;-38
2023/05/18 04:37:30;;;;;;;11.63;2.83;;;;;;;5.89;100.00;102447.41;7384707;19;20997;-38
2023/05/18 04:40:00;;;;;;;43.47;14.23;;;;;;;5.97;100.00;102415.66;7391653;19;20398;-38
2023/05/18 04:42:33;;;;;;;11.67;2.03;;;;;;;5.97;100.00;102433.59;7388184;19;20442;-38
2023/05/18 04:45:04;;;;;;;18.30;2.80;;;;;;;5.85;100.00;102460.69;7391554;19;20449;-40
2023/05/18 04:47:34;;;;;;;8.93;1.90;;;;;;;5.85;100.00;102476.06;7387676;19;20436;-38
2023/05/18 04:50:04;;;;;;;13.20;3.27;;;;;;;5.93;100.00;102380.25;7391994;19;21038;-39
2023/05/18 04:52:35;;;;;;;22.40;6.70;;;;;;;6.02;100.00;102367.34;7388737;19;20883;-38
2023/05/18 04:55:09;;;;;;;10.17;2.87;;;;;;;6.05;100.00;102339.47;7392609;19;20456;-37
2023/05/18 04:57:43;;;;;;;4.40;1.60;;;;;;;6.13;100.00;102417.00;7388648;19;20440;-38
2023/05/18 05:00:14;;;;;;;11.10;2.97;;;;;;;6.10;100.00;102419.31;7393280;19;20405;-38
2023/05/18 05:02:45;;;;;;;10.27;2.20;;;;;;;6.13;100.00;102437.50;7388052;19;20435;-38
2023/05/18 05:05:14;;;;;;;25.47;8.00;;;;;;;6.17;100.00;102447.25;7390926;19;20466;-37
2023/05/18 05:07:44;;;;;;;12.23;3.60;;;;;;;6.15;100.00;102420.63;7387201;19;20794;-38
2023/05/18 05:10:14;;;;;;;8.20;2.83;;;;;;;6.28;100.00;102448.19;7394589;19;20486;-38
2023/05/18 05:12:46;;;;;;;9.30;2.73;;;;;;;6.33;100.00;102411.94;7395711;19;20445;-38
2023/05/18 05:15:18;;;;;;;9.70;2.30;;;;;;;6.34;100.00;102426.56;7396411;19;20814;-38
2023/05/18 05:17:48;;;;;;;20.23;7.13;;;;;;;6.35;100.00;102394.09;7393629;19;20569;-38
2023/05/18 05:20:18;;;;;;;32.93;10.30;;;;;;;6.40;100.00;102346.69;7395628;19;20482;-39
2023/05/18 05:22:48;;;;;;;44.37;15.13;;;;;;;6.41;100.00;102335.66;7393266;19;20435;-39
2023/05/18 05:25:17;;;;;;;74.33;24.47;;;;;;;6.55;100.00;102334.25;7397522;19;21026;-38
2023/05/18 05:27:50;;;;;;;51.50;17.53;;;;;;;6.49;100.00;102328.63;7395325;19;20453;-38
2023/05/18 05:30:19;;;;;;;14.03;2.10;;;;;;;6.45;100.00;102313.72;7396978;19;20407;-38
2023/05/18 05:32:49;;;;;;;11.23;3.40;;;;;;;6.43;100.00;102315.28;7395039;19;20518;-37
2023/05/18 05:35:19;;;;;;;11.20;1.80;;;;;;;6.52;100.00;102321.19;7397122;19;20470;-36
2023/05/18 05:37:50;;;;;;;36.60;10.20;;;;;;;6.58;100.00;102321.72;7393923;19;20451;-39
2023/05/18 05:40:20;;;;;;;7.27;2.17;;;;;;;6.60;100.00;102312.47;7398706;19;20410;-39
2023/05/18 05:42:52;;;;;;;55.70;19.77;;;;;;;6.73;100.00;102292.94;7392298;19;20443;-35
2023/05/18 05:45:22;;;;;;;11.00;2.20;;;;;;;6.74;100.00;102287.03;7397035;19;21065;-38
2023/05/18 05:47:52;;;;;;;10.23;2.10;;;;;;;6.81;100.00;102296.16;7394089;19;20435;-36
2023/05/18 05:50:21;;;;;;;48.53;16.00;;;;;;;6.83;100.00;102299.72;7395695;19;20406;-37
2023/05/18 05:52:51;;;;;;;34.57;5.87;;;;;;;6.63;100.00;102309.25;7394648;19;20451;-36
2023/05/18 05:55:21;;;;;;;12.00;2.40;;;;;;;6.68;100.00;102317.31;7395657;19;20454;-38
2023/05/18 05:57:54;;;;;;;11.07;3.17;;;;;;;6.86;100.00;102302.53;7391486;19;20515;-38
2023/05/18 06:00:26;;;;;;;8.80;2.60;;;;;;;7.09;100.00;102296.72;7395242;19;20986;-38
2023/05/18 06:02:57;;;;;;;13.70;2.20;;;;;;;6.85;100.00;102319.63;7390197;19;20874;-38
2023/05/18 06:05:27;;;;;;;12.73;3.90;;;;;;;6.70;100.00;102331.16;7396935;19;20958;-39
2023/05/18 06:07:57;;;;;;;6.73;2.37;;;;;;;6.76;100.00;102339.38;7371796;19;20423;-38
2023/05/18 06:10:27;;;;;;;17.47;3.20;;;;;;;6.88;100.00;102336.94;7395470;19;20411;-38
2023/05/18 06:12:59;;;;;;;10.00;2.10;;;;;;;6.86;100.00;102349.63;7395710;19;20447;-38
2023/05/18 06:15:29;;;;;;;11.20;2.80;;;;;;;6.84;100.00;102346.03;7395623;19;20450;-38
2023/05/18 06:17:59;;;;;;;16.50;3.40;;;;;;;7.12;100.00;102317.50;7393164;19;20530;-38
2023/05/18 06:20:28;;;;;;;19.03;2.90;;;;;;;7.20;100.00;102324.91;7396481;19;20809;-38
2023/05/18 06:22:58;;;;;;;7.83;2.60;;;;;;;6.99;100.00;102343.81;7392677;19;20449;-37
2023/05/18 06:25:28;;;;;;;12.00;3.13;;;;;;;7.12;100.00;102350.84;7395144;19;20463;-37
2023/05/18 06:28:01;;;;;;;7.03;2.00;;;;;;;7.02;100.00;102366.28;7392725;19;20455;-38
2023/05/18 06:30:34;;;;;;;11.63;3.87;;;;;;;7.16;100.00;102363.19;7394101;19;20405;-35
2023/05/18 06:33:03;;;;;;;14.87;4.93;;;;;;;7.32;100.00;102345.56;7393690;19;20547;-35
2023/05/18 06:35:33;;;;;;;10.40;2.90;;;;;;;7.19;100.00;102374.47;7395458;19;20435;-37
2023/05/18 06:38:02;;;;;;;10.33;3.13;;;;;;;7.36;100.00;102361.31;7392031;19;20451;-37
2023/05/18 06:40:32;;;;;;;13.73;3.87;;;;;;;7.44;100.00;102356.81;7396925;19;20402;-40
2023/05/18 06:43:04;;;;;;;9.43;2.00;;;;;;;7.54;100.00;102364.47;7390395;19;20474;-37
2023/05/18 06:45:34;;;;;;;24.50;7.37;;;;;;;7.52;100.00;102376.28;7394109;19;20466;-36
2023/05/18 06:48:06;;;;;;;19.00;2.93;;;;;;;7.60;100.00;102386.28;7393015;19;20435;-36
2023/05/18 06:50:36;;;;;;;14.00;3.60;;;;;;;7.84;100.00;102379.63;7396352;19;20408;-36
2023/05/18 06:53:05;;;;;;;30.83;8.40;;;;;;;7.59;100.00;102418.75;7393055;19;20512;-38
2023/05/18 06:55:35;;;;;;;11.37;2.83;;;;;;;7.63;100.00;102418.25;7395267;19;20446;-39
2023/05/18 06:58:07;;;;;;;9.30;2.70;;;;;;;7.96;100.00;102429.41;7392178;19;20530;-37
2023/05/18 07:00:37;;;;;;;15.23;3.43;;;;;;;7.31;100.00;102457.63;7395764;19;20415;-37
2023/05/18 07:03:07;;;;;;;4.97;1.80;;;;;;;7.10;100.00;102449.97;7391416;19;20526;-38
2023/05/18 07:05:37;;;;;;;69.60;25.20;;;;;;;7.51;100.00;102424.97;7393591;19;20447;-38
2023/05/18 07:08:08;;;;;;;28.33;10.03;;;;;;;7.51;100.00;102455.78;7390099;19;20443;-37
2023/05/18 07:10:38;;;;;;;15.40;4.30;;;;;;;7.58;100.00;102470.91;7394972;19;20446;-37
2023/05/18 07:13:11;;;;;;;6.57;1.80;;;;;;;7.54;100.00;102468.91;7392639;19;20433;-38
2023/05/18 07:15:40;;;;;;;8.67;1.70;;;;;;;7.50;100.00;102438.59;7394699;19;20451;-37
2023/05/18 07:18:10;;;;;;;8.93;1.70;;;;;;;7.56;100.00;102439.09;7390992;19;20439;-38
2023/05/18 07:20:40;;;;;;;10.87;1.97;;;;;;;7.55;100.00;102427.91;7394183;19;20407;-38
2023/05/18 07:23:10;;;;;;;7.60;2.37;;;;;;;7.69;100.00;102374.16;7387960;19;20474;-37
2023/05/18 07:25:40;;;;;;;34.23;11.20;;;;;;;7.65;100.00;102403.84;7395148;19;21056;-38
2023/05/18 07:28:12;;;;;;;43.53;15.57;;;;;;;7.76;100.00;102457.78;7391895;19;20427;-38
2023/05/18 07:30:41;;;;;;;45.77;15.10;;;;;;;7.95;100.00;102461.03;7395490;19;20411;-37
2023/05/18 07:33:11;;;;;;;14.67;2.40;;;;;;;7.85;100.00;102491.94;7391379;19;20466;-37
2023/05/18 07:35:41;;;;;;;11.67;2.57;;;;;;;7.91;100.00;102484.72;7393566;19;20772;-38
2023/05/18 07:38:10;;;;;;;9.83;3.33;;;;;;;8.05;100.00;102497.78;7392304;19;20542;-37
2023/05/18 07:40:40;;;;;;;10.90;3.20;;;;;;;8.07;100.00;102488.50;7394684;19;21009;-38
2023/05/18 07:43:12;;;;;;;34.67;10.57;;;;;;;8.26;100.00;102510.53;7388370;19;20447;-41
2023/05/18 07:45:42;;;;;;;29.33;9.23;;;;;;;8.19;100.00;102517.78;7394010;19;20454;-39
2023/05/18 07:48:11;;;;;;;11.80;2.07;;;;;;;8.07;100.00;102537.34;7389554;19;20453;-37
2023/05/18 07:50:41;;;;;;;8.43;2.10;;;;;;;7.79;100.00;102530.00;7393789;19;20399;-39
2023/05/18 07:53:11;;;;;;;7.67;2.30;;;;;;;7.86;100.00;102531.38;7390534;19;20452;-39
2023/05/18 07:55:41;;;;;;;7.23;2.43;;;;;;;7.94;100.00;102538.94;7393602;19;20486;-38
2023/05/18 07:58:13;;;;;;;8.83;1.80;;;;;;;8.00;100.00;102547.91;7390394;19;20443;-37
2023/05/18 08:00:43;;;;;;;8.53;2.57;;;;;;;8.19;100.00;102497.19;7392407;19;20423;-37
2023/05/18 08:03:12;;;;;;;20.83;7.73;;;;;;;8.27;100.00;102538.06;7390700;19;20997;-38
2023/05/18 08:05:42;;;;;;;52.87;19.50;;;;;;;8.14;100.00;102557.63;7393380;19;20447;-39
2023/05/18 08:08:14;;;;;;;10.40;2.60;;;;;;;8.29;100.00;102572.50;7391012;19;20461;-37
2023/05/18 08:10:43;;;;;;;12.73;4.00;;;;;;;8.09;100.00;102582.97;7393160;19;20419;-37
2023/05/18 08:13:15;;;;;;;20.60;3.90;;;;;;;8.07;100.00;102593.91;7390531;19;20795;-38
2023/05/18 08:15:45;;;;;;;10.27;3.10;;;;;;;8.34;100.00;102617.50;7393431;19;20435;-37
2023/05/18 08:18:27;;;;;;;8.43;2.60;;;;;;;8.48;100.00;102623.75;7389802;19;20807;-39
2023/05/18 08:20:57;;;;;;;9.30;3.23;;;;;;;8.41;100.00;102636.91;7392652;19;20740;-38
2023/05/18 08:23:26;;;;;;;6.97;1.87;;;;;;;8.60;100.00;102653.06;7390057;19;20515;-37
2023/05/18 08:25:58;;;;;;;13.27;2.47;;;;;;;8.89;100.00;102661.31;7391611;19;21077;-38
2023/05/18 08:28:31;;;;;;;6.10;1.93;;;;;;;8.61;100.00;102672.00;7390642;19;20829;-38
2023/05/18 08:31:00;;;;;;;18.87;5.57;;;;;;;8.85;100.00;102677.28;7393938;19;20414;-38
2023/05/18 08:33:31;;;;;;;10.40;1.93;;;;;;;9.06;100.00;102696.13;7389700;19;20436;-38
2023/05/18 08:36:01;;;;;;;10.87;2.90;;;;;;;9.39;100.00;102714.09;7391291;19;20829;-38
2023/05/18 08:38:30;;;;;;;10.40;2.20;;;;;;;9.49;100.00;102734.63;7389366;19;20457;-39
2023/05/18 08:41:09;;;;;;;7.13;2.00;;;;;;;9.70;100.00;102712.19;7393178;19;20416;-37
2023/05/18 08:43:45;;;;;;;30.83;11.20;;;;;;;9.51;100.00;102738.25;7387894;19;20466;-37
2023/05/18 08:46:20;;;;;;;9.83;3.63;;;;;;;9.20;100.00;102743.56;7399173;19;20580;-36
2023/05/18 08:48:51;;;;;;;13.70;2.13;;;;;;;9.38;100.00;102710.63;7397146;19;20505;-37
2023/05/18 08:51:23;;;;;;;13.97;1.90;;;;;;;9.21;100.00;102713.53;7400280;19;20399;-40
2023/05/18 08:53:54;;;;;;;9.67;2.60;;;;;;;9.32;100.00;102713.63;7399411;19;20450;-36
2023/05/18 08:56:25;;;;;;;10.80;2.73;;;;;;;9.31;100.00;102727.28;7397859;19;20798;-36
2023/05/18 08:59:01;;;;;;;15.67;3.97;;;;;;;9.19;100.00;102696.28;7398603;19;20832;-37
2023/05/18 09:01:31;;;;;;;7.70;1.80;;;;;;;9.35;100.00;102657.97;7397363;19;20834;-37
2023/05/18 09:04:01;;;;;;;11.67;4.13;;;;;;;9.32;100.00;102707.56;7397411;19;20407;-37
2023/05/18 09:06:32;;;;;;;10.73;2.37;;;;;;;9.73;100.00;102701.22;7393896;19;20463;-38
2023/05/18 09:09:03;;;;;;;14.00;4.17;;;;;;;9.72;100.00;102743.25;7400550;19;20427;-36
2023/05/18 09:11:34;;;;;;;10.97;2.37;;;;;;;9.62;100.00;102740.75;7393355;19;20758;-37
2023/05/18 09:14:07;;;;;;;11.57;3.73;;;;;;;9.78;100.00;102727.34;7398067;19;20432;-36
2023/05/18 09:16:36;;;;;;;10.43;2.00;;;;;;;9.70;100.00;102757.72;7394181;19;20463;-37
2023/05/18 09:19:09;;;;;;;14.00;4.57;;;;;;;10.01;100.00;102760.06;7399735;19;20435;-38
2023/05/18 09:21:39;;;;;;;6.67;2.43;;;;;;;10.18;100.00;102773.34;7393537;19;20430;-37
2023/05/18 09:24:10;;;;;;;20.70;9.00;;;;;;;9.82;100.00;102778.38;7397376;19;20403;-37
2023/05/18 09:26:40;;;;;;;162.97;59.87;;;;;;;9.67;100.00;102747.16;7392823;19;20441;-37
2023/05/18 09:29:20;;;;;;;17.57;6.80;;;;;;;9.86;100.00;102747.78;7399170;19;20489;-38
2023/05/18 09:31:50;;;;;;;13.90;2.53;;;;;;;9.80;100.00;102754.16;7394020;19;20582;-40
2023/05/18 09:34:20;;;;;;;29.17;11.30;;;;;;;10.00;100.00;102768.56;7399332;19;20417;-35
2023/05/18 09:36:51;;;;;;;35.37;13.90;;;;;;;9.91;100.00;102758.47;7392720;19;20465;-37
2023/05/18 09:39:21;;;;;;;13.30;3.97;;;;;;;10.10;100.00;102772.78;7396498;19;21077;-37
2023/05/18 09:41:56;;;;;;;15.27;4.40;;;;;;;10.33;100.00;102753.88;7393596;19;20421;-40
2023/05/18 09:44:33;;;;;;;92.60;33.30;;;;;;;10.58;100.00;102749.66;7395762;19;20415;-38
2023/05/18 09:47:03;;;;;;;14.90;3.47;;;;;;;10.83;100.00;102774.69;7390610;19;20920;-37
2023/05/18 09:49:33;;;;;;;20.70;7.10;;;;;;;10.78;100.00;102775.22;7396588;19;20444;-36
2023/05/18 09:52:03;;;;;;;6.20;2.40;;;;;;;10.89;100.00;102769.97;7395474;19;20415;-37
2023/05/18 09:54:32;;;;;;;15.87;4.63;;;;;;;11.05;100.00;102774.56;7396113;19;20419;-39
2023/05/18 09:57:02;;;;;;;8.10;2.23;;;;;;;10.93;100.00;102767.72;7393129;19;20421;-38
2023/05/18 09:59:42;;;;;;;40.00;16.07;;;;;;;11.02;100.00;102761.44;7396541;19;20421;-39
2023/05/18 10:02:14;;;;;;;18.13;6.10;;;;;;;11.23;100.00;102768.91;7393670;19;20413;-37
2023/05/18 10:04:46;;;;;;;32.43;11.00;;;;;;;10.68;100.00;102762.47;7397373;19;20419;-38
2023/05/18 10:07:17;;;;;;;13.63;4.67;;;;;;;10.32;100.00;102777.88;7394887;19;20452;-38
2023/05/18 10:09:48;;;;;;;14.93;5.40;;;;;;;10.31;100.00;102773.47;7398357;19;20400;-39
2023/05/18 10:12:21;;;;;;;10.00;2.60;;;;;;;10.56;100.00;102757.28;7393595;19;20451;-37
2023/05/18 10:14:53;;;;;;;21.37;6.77;;;;;;;10.87;100.00;102764.69;7396799;19;20440;-36
2023/05/18 10:17:24;;;;;;;16.70;4.23;;;;;;;11.12;100.00;102756.13;7392185;19;20441;-37
2023/05/18 10:19:56;;;;;;;12.10;2.57;;;;;;;11.18;100.00;102755.69;7398640;19;21020;-38
2023/05/18 10:22:27;;;;;;;23.80;7.47;;;;;;;11.07;100.00;102752.31;7392989;19;20427;-37
2023/05/18 10:24:56;;;;;;;24.53;8.40;;;;;;;10.81;100.00;102756.50;7397877;19;20462;-35
2023/05/18 10:27:29;;;;;;;10.37;3.37;;;;;;;10.80;100.00;102749.53;7392162;19;20454;-36
2023/05/18 10:30:02;;;;;;;31.80;12.37;;;;;;;11.32;100.00;102746.28;7398524;19;20414;-37
2023/05/18 10:32:32;;;;;;;10.27;2.50;;;;;;;11.57;100.00;102743.75;7392394;19;20830;-38
2023/05/18 10:35:04;;;;;;;11.30;4.67;;;;;;;11.87;100.00;102738.91;7397252;19;20794;-38
2023/05/18 10:37:35;;;;;;;8.60;3.10;;;;;;;11.86;100.00;102715.50;7391362;19;20483;-38
2023/05/18 10:40:06;;;;;;;21.57;6.93;;;;;;;12.17;100.00;102720.19;7397464;19;20436;-38
2023/05/18 10:42:36;;;;;;;33.77;10.97;;;;;;;12.38;100.00;102725.00;7390716;19;20475;-38
2023/05/18 10:45:11;;;;;;;60.37;21.37;;;;;;;12.37;100.00;102713.72;7395329;19;21002;-37
2023/05/18 10:47:41;;;;;;;17.67;5.00;;;;;;;12.21;100.00;102714.41;7392458;19;20439;-38
2023/05/18 10:50:12;;;;;;;25.53;10.23;;;;;;;12.42;100.00;102721.81;7398111;19;20417;-36
2023/05/18 10:52:44;;;;;;;13.70;3.63;;;;;;;12.73;100.00;102744.53;7394022;19;20439;-37
2023/05/18 10:55:14;;;;;;;9.53;2.73;;;;;;;13.17;100.00;102747.25;7396965;19;20444;-37
2023/05/18 10:57:48;;;;;;;7.00;2.20;;;;;;;12.92;100.00;102719.81;7392607;19;20452;-38
2023/05/18 11:00:21;;;;;;;11.83;2.43;;;;;;;13.22;100.00;102743.25;7395574;19;20952;-40
2023/05/18 11:02:51;;;;;;;9.80;2.87;;;;;;;13.05;100.00;102732.72;7389949;19;20441;-37
2023/05/18 11:05:26;;;;;;;14.37;4.37;;;;;;;13.00;100.00;102722.84;7393496;19;20922;-37
2023/05/18 11:08:03;;;;;;;10.53;2.87;;;;;;;13.06;100.00;102703.44;7389836;19;20504;-38
2023/05/18 11:10:37;;;;;;;11.23;3.03;;;;;;;13.44;100.00;102729.91;7394200;19;20959;-38
2023/05/18 11:13:07;;;;;;;16.20;3.97;;;;;;;12.86;100.00;102694.38;7392933;19;20951;-38
2023/05/18 11:16:07;;;;;;;13.60;4.47;;;;;;;12.78;100.00;102693.88;7394319;19;20476;-37
2023/05/18 11:18:39;;;;;;;10.13;2.40;;;;;;;12.63;100.00;102695.53;7391250;19;20453;-38
2023/05/18 11:21:34;;;;;;;7.87;2.20;;;;;;;13.13;100.00;102732.31;7397096;19;20418;-39
2023/05/18 11:24:35;;;;;;;12.20;4.23;;;;;;;13.39;100.00;102687.28;7394298;19;20533;-37
2023/05/18 11:27:18;;;;;;;26.30;11.43;;;;;;;13.46;100.00;102697.25;7386584;19;20410;-37
2023/05/18 11:29:48;;;;;;;19.70;8.10;;;;;;;13.49;100.00;102699.13;7394308;19;20956;-37
2023/05/18 11:32:30;;;;;;;8.63;2.90;;;;;;;12.94;100.00;102681.94;7389185;19;21115;-38
2023/05/18 11:35:04;;;;;;;11.10;3.50;;;;;;;13.34;100.00;102691.28;7394152;19;20493;-38